Wick, United Kingdom
Current Conditions -  °F | °C
As of 4:50 AM on Monday 22 Dec 2014 (Local Time) from EGPC Reporting Station
Few Clouds Few Clouds  
Wind Chill: 36°   Ceiling: Unl
Heat Index: 39°   Visibility: 6mi
Dew Point: 36°   Wind: 5mph
Humidity: 87%   Direction: 270°W
Pressure: 29.38"   Gusts: NA
Location:  58.44°N, 3.09°W
Report Text: EGPC 220450Z AUTO 27004KT 9999 FEW024/// 04/02 Q0995
Loading
Personal Weather Stations






























Interactive Weather Map New forecast layout! Learn more

10-Day Weather Forecast

Advertisements
Track Severe Weather on mobile